sensor_id;sensor_type;location;lat;lon;timestamp;P1;durP1;ratioP1;P2;durP2;ratioP2
40867;SDS011;26586;50.708;22.412;2022-10-26T00:00:22;6.45;;;4.28;;
40867;SDS011;26586;50.708;22.412;2022-10-26T00:03:09;8.93;;;5.18;;
40867;SDS011;26586;50.708;22.412;2022-10-26T00:05:35;7.18;;;4.88;;
40867;SDS011;26586;50.708;22.412;2022-10-26T00:08:01;7.53;;;5.13;;
40867;SDS011;26586;50.708;22.412;2022-10-26T00:10:28;8.85;;;5.88;;
40867;SDS011;26586;50.708;22.412;2022-10-26T00:12:54;12.18;;;6.22;;
40867;SDS011;26586;50.708;22.412;2022-10-26T00:15:20;9.75;;;5.82;;
40867;SDS011;26586;50.708;22.412;2022-10-26T00:17:47;7.78;;;6.03;;
40867;SDS011;26586;50.708;22.412;2022-10-26T00:20:13;4.95;;;3.75;;
40867;SDS011;26586;50.708;22.412;2022-10-26T00:22:39;4.60;;;2.93;;
40867;SDS011;26586;50.708;22.412;2022-10-26T00:25:06;6.63;;;3.88;;
40867;SDS011;26586;50.708;22.412;2022-10-26T00:27:33;5.60;;;3.17;;
40867;SDS011;26586;50.708;22.412;2022-10-26T00:30:00;5.88;;;3.30;;
40867;SDS011;26586;50.708;22.412;2022-10-26T00:32:27;5.15;;;3.50;;
40867;SDS011;26586;50.708;22.412;2022-10-26T00:34:53;5.47;;;3.28;;
40867;SDS011;26586;50.708;22.412;2022-10-26T00:37:19;4.55;;;3.17;;
40867;SDS011;26586;50.708;22.412;2022-10-26T00:39:46;5.18;;;3.42;;
40867;SDS011;26586;50.708;22.412;2022-10-26T00:42:12;4.77;;;3.30;;
40867;SDS011;26586;50.708;22.412;2022-10-26T00:47:17;5.72;;;3.92;;
40867;SDS011;26586;50.708;22.412;2022-10-26T00:50:09;7.82;;;4.43;;
40867;SDS011;26586;50.708;22.412;2022-10-26T00:52:42;8.57;;;5.20;;
40867;SDS011;26586;50.708;22.412;2022-10-26T00:55:08;7.13;;;4.50;;
40867;SDS011;26586;50.708;22.412;2022-10-26T00:57:36;7.45;;;4.82;;
40867;SDS011;26586;50.708;22.412;2022-10-26T01:00:04;7.57;;;4.88;;
40867;SDS011;26586;50.708;22.412;2022-10-26T01:02:33;7.95;;;4.72;;
40867;SDS011;26586;50.708;22.412;2022-10-26T01:07:27;6.07;;;4.07;;
40867;SDS011;26586;50.708;22.412;2022-10-26T01:09:53;5.47;;;3.75;;
40867;SDS011;26586;50.708;22.412;2022-10-26T01:12:21;6.90;;;3.42;;
40867;SDS011;26586;50.708;22.412;2022-10-26T01:14:47;5.15;;;3.22;;
40867;SDS011;26586;50.708;22.412;2022-10-26T01:23:11;6.60;;;3.47;;
40867;SDS011;26586;50.708;22.412;2022-10-26T01:29:21;4.97;;;3.42;;
40867;SDS011;26586;50.708;22.412;2022-10-26T01:32:38;5.60;;;3.80;;
40867;SDS011;26586;50.708;22.412;2022-10-26T01:35:28;4.32;;;3.70;;
40867;SDS011;26586;50.708;22.412;2022-10-26T01:38:03;5.78;;;4.38;;
40867;SDS011;26586;50.708;22.412;2022-10-26T01:40:39;5.45;;;4.05;;
40867;SDS011;26586;50.708;22.412;2022-10-26T01:43:14;7.07;;;4.65;;
40867;SDS011;26586;50.708;22.412;2022-10-26T01:45:42;6.95;;;4.30;;
40867;SDS011;26586;50.708;22.412;2022-10-26T01:48:11;6.85;;;3.97;;
40867;SDS011;26586;50.708;22.412;2022-10-26T01:50:40;8.38;;;4.63;;
40867;SDS011;26586;50.708;22.412;2022-10-26T01:53:10;7.97;;;4.65;;
40867;SDS011;26586;50.708;22.412;2022-10-26T01:58:16;6.00;;;5.20;;
40867;SDS011;26586;50.708;22.412;2022-10-26T02:00:50;8.25;;;4.80;;
40867;SDS011;26586;50.708;22.412;2022-10-26T02:06:44;8.05;;;4.63;;
40867;SDS011;26586;50.708;22.412;2022-10-26T02:09:26;6.32;;;4.95;;
40867;SDS011;26586;50.708;22.412;2022-10-26T02:12:10;7.13;;;4.93;;
40867;SDS011;26586;50.708;22.412;2022-10-26T02:14:59;6.82;;;4.93;;
40867;SDS011;26586;50.708;22.412;2022-10-26T02:17:53;7.38;;;5.03;;
40867;SDS011;26586;50.708;22.412;2022-10-26T02:20:26;8.38;;;5.93;;
40867;SDS011;26586;50.708;22.412;2022-10-26T02:22:58;8.63;;;5.95;;
40867;SDS011;26586;50.708;22.412;2022-10-26T02:25:29;9.45;;;5.90;;
40867;SDS011;26586;50.708;22.412;2022-10-26T02:27:59;11.10;;;5.88;;
40867;SDS011;26586;50.708;22.412;2022-10-26T02:30:32;11.57;;;6.70;;
40867;SDS011;26586;50.708;22.412;2022-10-26T02:32:59;9.07;;;6.30;;
40867;SDS011;26586;50.708;22.412;2022-10-26T02:35:29;10.93;;;7.10;;
40867;SDS011;26586;50.708;22.412;2022-10-26T02:37:59;9.95;;;7.03;;
40867;SDS011;26586;50.708;22.412;2022-10-26T02:40:28;11.75;;;6.60;;
40867;SDS011;26586;50.708;22.412;2022-10-26T02:42:58;10.40;;;7.22;;
40867;SDS011;26586;50.708;22.412;2022-10-26T02:45:42;10.18;;;6.82;;
40867;SDS011;26586;50.708;22.412;2022-10-26T02:48:13;11.05;;;9.07;;
40867;SDS011;26586;50.708;22.412;2022-10-26T02:53:26;9.15;;;6.60;;
40867;SDS011;26586;50.708;22.412;2022-10-26T02:55:59;9.02;;;6.50;;
40867;SDS011;26586;50.708;22.412;2022-10-26T02:58:32;11.45;;;6.85;;
40867;SDS011;26586;50.708;22.412;2022-10-26T03:01:03;36.33;;;16.92;;
40867;SDS011;26586;50.708;22.412;2022-10-26T03:03:29;25.13;;;14.90;;
40867;SDS011;26586;50.708;22.412;2022-10-26T03:05:55;21.90;;;12.60;;
40867;SDS011;26586;50.708;22.412;2022-10-26T03:08:22;16.93;;;9.37;;
40867;SDS011;26586;50.708;22.412;2022-10-26T03:10:48;12.45;;;9.00;;
40867;SDS011;26586;50.708;22.412;2022-10-26T03:13:14;10.43;;;7.23;;
40867;SDS011;26586;50.708;22.412;2022-10-26T03:15:41;12.80;;;7.38;;
40867;SDS011;26586;50.708;22.412;2022-10-26T03:18:07;10.88;;;6.75;;
40867;SDS011;26586;50.708;22.412;2022-10-26T03:20:33;9.43;;;6.70;;
40867;SDS011;26586;50.708;22.412;2022-10-26T03:23:00;9.05;;;6.57;;
40867;SDS011;26586;50.708;22.412;2022-10-26T03:25:26;10.52;;;6.78;;
40867;SDS011;26586;50.708;22.412;2022-10-26T03:27:59;12.07;;;7.50;;
40867;SDS011;26586;50.708;22.412;2022-10-26T03:30:27;9.20;;;6.60;;
40867;SDS011;26586;50.708;22.412;2022-10-26T03:32:54;10.00;;;7.35;;
40867;SDS011;26586;50.708;22.412;2022-10-26T03:35:20;9.95;;;7.47;;
40867;SDS011;26586;50.708;22.412;2022-10-26T03:37:47;11.70;;;7.32;;
40867;SDS011;26586;50.708;22.412;2022-10-26T03:40:13;11.03;;;6.97;;
40867;SDS011;26586;50.708;22.412;2022-10-26T03:42:40;12.10;;;8.02;;
40867;SDS011;26586;50.708;22.412;2022-10-26T03:45:06;10.57;;;7.03;;
40867;SDS011;26586;50.708;22.412;2022-10-26T03:47:33;9.40;;;6.97;;
40867;SDS011;26586;50.708;22.412;2022-10-26T03:50:06;9.70;;;7.72;;
40867;SDS011;26586;50.708;22.412;2022-10-26T03:52:33;10.63;;;7.85;;
40867;SDS011;26586;50.708;22.412;2022-10-26T03:54:59;11.45;;;7.45;;
40867;SDS011;26586;50.708;22.412;2022-10-26T03:57:25;10.80;;;7.53;;
40867;SDS011;26586;50.708;22.412;2022-10-26T03:59:51;9.75;;;7.15;;
40867;SDS011;26586;50.708;22.412;2022-10-26T04:02:17;10.17;;;7.90;;
40867;SDS011;26586;50.708;22.412;2022-10-26T04:04:43;9.38;;;7.47;;
40867;SDS011;26586;50.708;22.412;2022-10-26T04:07:10;9.87;;;7.87;;
40867;SDS011;26586;50.708;22.412;2022-10-26T04:09:36;9.10;;;6.63;;
40867;SDS011;26586;50.708;22.412;2022-10-26T04:12:02;9.20;;;6.90;;
40867;SDS011;26586;50.708;22.412;2022-10-26T04:14:29;8.13;;;6.30;;
40867;SDS011;26586;50.708;22.412;2022-10-26T04:16:55;10.00;;;7.07;;
40867;SDS011;26586;50.708;22.412;2022-10-26T04:19:21;10.02;;;7.13;;
40867;SDS011;26586;50.708;22.412;2022-10-26T04:21:49;12.10;;;7.70;;
40867;SDS011;26586;50.708;22.412;2022-10-26T04:24:16;9.18;;;6.60;;
40867;SDS011;26586;50.708;22.412;2022-10-26T04:26:42;9.98;;;7.97;;
40867;SDS011;26586;50.708;22.412;2022-10-26T04:29:09;10.77;;;8.05;;
40867;SDS011;26586;50.708;22.412;2022-10-26T04:31:36;14.00;;;7.95;;
40867;SDS011;26586;50.708;22.412;2022-10-26T04:34:02;25.90;;;22.33;;
40867;SDS011;26586;50.708;22.412;2022-10-26T04:36:28;13.90;;;9.47;;
40867;SDS011;26586;50.708;22.412;2022-10-26T04:38:55;33.08;;;17.88;;
40867;SDS011;26586;50.708;22.412;2022-10-26T04:41:21;24.27;;;12.95;;
40867;SDS011;26586;50.708;22.412;2022-10-26T04:43:47;24.75;;;14.43;;
40867;SDS011;26586;50.708;22.412;2022-10-26T04:46:13;27.43;;;15.47;;
40867;SDS011;26586;50.708;22.412;2022-10-26T04:48:39;19.67;;;12.77;;
40867;SDS011;26586;50.708;22.412;2022-10-26T04:51:06;21.98;;;12.98;;
40867;SDS011;26586;50.708;22.412;2022-10-26T04:53:32;15.52;;;10.05;;
40867;SDS011;26586;50.708;22.412;2022-10-26T04:55:59;16.45;;;10.88;;
40867;SDS011;26586;50.708;22.412;2022-10-26T04:58:26;16.48;;;10.90;;
40867;SDS011;26586;50.708;22.412;2022-10-26T05:03:19;11.77;;;8.98;;
40867;SDS011;26586;50.708;22.412;2022-10-26T05:05:45;13.77;;;8.60;;
40867;SDS011;26586;50.708;22.412;2022-10-26T05:08:14;17.67;;;12.23;;
40867;SDS011;26586;50.708;22.412;2022-10-26T05:10:41;13.65;;;9.45;;
40867;SDS011;26586;50.708;22.412;2022-10-26T05:13:07;13.60;;;8.43;;
40867;SDS011;26586;50.708;22.412;2022-10-26T05:15:35;22.65;;;10.52;;
40867;SDS011;26586;50.708;22.412;2022-10-26T05:18:02;17.77;;;10.60;;
40867;SDS011;26586;50.708;22.412;2022-10-26T05:20:30;22.77;;;12.40;;
40867;SDS011;26586;50.708;22.412;2022-10-26T05:23:09;20.65;;;12.65;;
40867;SDS011;26586;50.708;22.412;2022-10-26T05:25:36;12.85;;;8.93;;
40867;SDS011;26586;50.708;22.412;2022-10-26T05:28:03;13.05;;;8.88;;
40867;SDS011;26586;50.708;22.412;2022-10-26T05:30:33;13.27;;;8.77;;
40867;SDS011;26586;50.708;22.412;2022-10-26T05:32:59;13.03;;;8.67;;
40867;SDS011;26586;50.708;22.412;2022-10-26T05:35:30;10.88;;;7.70;;
40867;SDS011;26586;50.708;22.412;2022-10-26T05:37:57;12.32;;;8.20;;
40867;SDS011;26586;50.708;22.412;2022-10-26T05:40:24;13.75;;;8.40;;
40867;SDS011;26586;50.708;22.412;2022-10-26T05:42:50;14.32;;;8.27;;
40867;SDS011;26586;50.708;22.412;2022-10-26T05:45:17;10.40;;;7.05;;
40867;SDS011;26586;50.708;22.412;2022-10-26T05:47:43;18.90;;;10.47;;
40867;SDS011;26586;50.708;22.412;2022-10-26T05:50:10;12.98;;;8.00;;
40867;SDS011;26586;50.708;22.412;2022-10-26T05:52:38;10.93;;;8.18;;
40867;SDS011;26586;50.708;22.412;2022-10-26T05:55:09;11.82;;;7.57;;
40867;SDS011;26586;50.708;22.412;2022-10-26T05:57:37;14.52;;;9.95;;
40867;SDS011;26586;50.708;22.412;2022-10-26T06:00:08;16.60;;;7.88;;
40867;SDS011;26586;50.708;22.412;2022-10-26T06:05:50;13.60;;;7.07;;
40867;SDS011;26586;50.708;22.412;2022-10-26T06:08:18;10.10;;;6.60;;
40867;SDS011;26586;50.708;22.412;2022-10-26T06:10:48;12.77;;;7.10;;
40867;SDS011;26586;50.708;22.412;2022-10-26T06:13:16;10.57;;;7.80;;
40867;SDS011;26586;50.708;22.412;2022-10-26T06:15:49;11.05;;;7.07;;
40867;SDS011;26586;50.708;22.412;2022-10-26T06:18:48;10.43;;;7.10;;
40867;SDS011;26586;50.708;22.412;2022-10-26T06:24:07;11.48;;;7.07;;
40867;SDS011;26586;50.708;22.412;2022-10-26T06:29:16;10.35;;;6.05;;
40867;SDS011;26586;50.708;22.412;2022-10-26T06:32:01;9.75;;;7.30;;
40867;SDS011;26586;50.708;22.412;2022-10-26T06:34:28;11.97;;;7.37;;
40867;SDS011;26586;50.708;22.412;2022-10-26T06:36:59;11.57;;;7.72;;
40867;SDS011;26586;50.708;22.412;2022-10-26T06:39:26;9.90;;;6.88;;
40867;SDS011;26586;50.708;22.412;2022-10-26T06:41:56;10.02;;;6.28;;
40867;SDS011;26586;50.708;22.412;2022-10-26T06:46:58;8.73;;;6.32;;
40867;SDS011;26586;50.708;22.412;2022-10-26T06:49:40;11.63;;;7.00;;
40867;SDS011;26586;50.708;22.412;2022-10-26T06:52:25;14.27;;;7.30;;
40867;SDS011;26586;50.708;22.412;2022-10-26T06:55:04;9.75;;;6.70;;
40867;SDS011;26586;50.708;22.412;2022-10-26T06:57:37;12.90;;;8.07;;
40867;SDS011;26586;50.708;22.412;2022-10-26T07:00:06;11.88;;;7.65;;
40867;SDS011;26586;50.708;22.412;2022-10-26T07:02:44;11.40;;;7.28;;
40867;SDS011;26586;50.708;22.412;2022-10-26T07:05:10;10.95;;;7.15;;
40867;SDS011;26586;50.708;22.412;2022-10-26T07:07:40;11.57;;;6.75;;
40867;SDS011;26586;50.708;22.412;2022-10-26T07:10:11;12.38;;;7.68;;
40867;SDS011;26586;50.708;22.412;2022-10-26T07:12:39;11.90;;;7.28;;
40867;SDS011;26586;50.708;22.412;2022-10-26T07:15:06;11.35;;;6.88;;
40867;SDS011;26586;50.708;22.412;2022-10-26T07:17:42;9.43;;;6.03;;
40867;SDS011;26586;50.708;22.412;2022-10-26T07:20:10;9.73;;;6.05;;
40867;SDS011;26586;50.708;22.412;2022-10-26T07:25:03;9.25;;;5.10;;
40867;SDS011;26586;50.708;22.412;2022-10-26T07:27:31;12.20;;;6.88;;
40867;SDS011;26586;50.708;22.412;2022-10-26T07:29:57;10.48;;;6.85;;
40867;SDS011;26586;50.708;22.412;2022-10-26T07:32:23;11.27;;;7.40;;
40867;SDS011;26586;50.708;22.412;2022-10-26T07:34:49;11.90;;;7.72;;
40867;SDS011;26586;50.708;22.412;2022-10-26T07:37:16;12.03;;;7.43;;
40867;SDS011;26586;50.708;22.412;2022-10-26T07:39:42;12.07;;;6.97;;
40867;SDS011;26586;50.708;22.412;2022-10-26T07:42:08;10.50;;;7.03;;
40867;SDS011;26586;50.708;22.412;2022-10-26T07:44:34;11.52;;;6.80;;
40867;SDS011;26586;50.708;22.412;2022-10-26T07:47:01;11.13;;;6.40;;
40867;SDS011;26586;50.708;22.412;2022-10-26T07:49:27;8.65;;;5.85;;
40867;SDS011;26586;50.708;22.412;2022-10-26T07:51:53;8.40;;;5.87;;
40867;SDS011;26586;50.708;22.412;2022-10-26T07:54:19;8.50;;;5.73;;
40867;SDS011;26586;50.708;22.412;2022-10-26T07:56:47;11.93;;;6.07;;
40867;SDS011;26586;50.708;22.412;2022-10-26T07:59:14;9.25;;;5.65;;
40867;SDS011;26586;50.708;22.412;2022-10-26T08:01:42;10.00;;;6.38;;
40867;SDS011;26586;50.708;22.412;2022-10-26T08:04:09;10.93;;;5.75;;
40867;SDS011;26586;50.708;22.412;2022-10-26T08:06:36;9.93;;;6.63;;
40867;SDS011;26586;50.708;22.412;2022-10-26T08:09:02;8.45;;;5.55;;
40867;SDS011;26586;50.708;22.412;2022-10-26T08:11:28;13.25;;;7.45;;
40867;SDS011;26586;50.708;22.412;2022-10-26T08:13:55;14.83;;;7.43;;
40867;SDS011;26586;50.708;22.412;2022-10-26T08:16:21;27.98;;;14.15;;
40867;SDS011;26586;50.708;22.412;2022-10-26T08:18:47;13.37;;;7.60;;
40867;SDS011;26586;50.708;22.412;2022-10-26T08:23:40;9.87;;;5.87;;
40867;SDS011;26586;50.708;22.412;2022-10-26T08:26:07;7.53;;;4.72;;
40867;SDS011;26586;50.708;22.412;2022-10-26T08:28:36;14.15;;;7.18;;
40867;SDS011;26586;50.708;22.412;2022-10-26T08:31:03;10.82;;;5.28;;
40867;SDS011;26586;50.708;22.412;2022-10-26T08:33:29;10.02;;;5.68;;
40867;SDS011;26586;50.708;22.412;2022-10-26T08:35:56;7.82;;;5.03;;
40867;SDS011;26586;50.708;22.412;2022-10-26T08:38:24;15.90;;;6.28;;
40867;SDS011;26586;50.708;22.412;2022-10-26T08:40:50;10.82;;;7.75;;
40867;SDS011;26586;50.708;22.412;2022-10-26T08:43:27;19.20;;;7.60;;
40867;SDS011;26586;50.708;22.412;2022-10-26T08:46:00;11.57;;;5.40;;
40867;SDS011;26586;50.708;22.412;2022-10-26T08:48:58;7.82;;;5.03;;
40867;SDS011;26586;50.708;22.412;2022-10-26T08:51:33;7.97;;;4.10;;
40867;SDS011;26586;50.708;22.412;2022-10-26T08:54:13;7.22;;;3.90;;
40867;SDS011;26586;50.708;22.412;2022-10-26T08:56:51;15.70;;;5.07;;
40867;SDS011;26586;50.708;22.412;2022-10-26T08:59:33;11.10;;;7.50;;
40867;SDS011;26586;50.708;22.412;2022-10-26T09:02:15;7.97;;;5.05;;
40867;SDS011;26586;50.708;22.412;2022-10-26T09:04:42;6.65;;;4.30;;
40867;SDS011;26586;50.708;22.412;2022-10-26T09:09:50;7.97;;;4.60;;
40867;SDS011;26586;50.708;22.412;2022-10-26T09:29:30;6.30;;;4.03;;
40867;SDS011;26586;50.708;22.412;2022-10-26T09:32:02;8.20;;;5.72;;
40867;SDS011;26586;50.708;22.412;2022-10-26T09:34:38;11.23;;;5.65;;
40867;SDS011;26586;50.708;22.412;2022-10-26T09:40:33;14.48;;;6.40;;
40867;SDS011;26586;50.708;22.412;2022-10-26T09:43:11;9.60;;;5.20;;
40867;SDS011;26586;50.708;22.412;2022-10-26T09:45:43;12.13;;;6.20;;
40867;SDS011;26586;50.708;22.412;2022-10-26T09:48:47;9.35;;;5.00;;
40867;SDS011;26586;50.708;22.412;2022-10-26T09:51:08;15.00;;;6.32;;
40867;SDS011;26586;50.708;22.412;2022-10-26T09:53:35;11.63;;;5.68;;
40867;SDS011;26586;50.708;22.412;2022-10-26T09:56:08;11.35;;;6.55;;
40867;SDS011;26586;50.708;22.412;2022-10-26T09:58:40;15.98;;;6.00;;
40867;SDS011;26586;50.708;22.412;2022-10-26T10:06:42;17.10;;;7.95;;
40867;SDS011;26586;50.708;22.412;2022-10-26T10:09:19;10.35;;;7.00;;
40867;SDS011;26586;50.708;22.412;2022-10-26T10:14:23;25.00;;;9.68;;
40867;SDS011;26586;50.708;22.412;2022-10-26T10:16:55;10.05;;;5.70;;
40867;SDS011;26586;50.708;22.412;2022-10-26T10:19:25;13.23;;;6.32;;
40867;SDS011;26586;50.708;22.412;2022-10-26T10:22:01;12.98;;;8.43;;
40867;SDS011;26586;50.708;22.412;2022-10-26T10:24:36;10.43;;;6.07;;
40867;SDS011;26586;50.708;22.412;2022-10-26T10:29:42;12.13;;;5.97;;
40867;SDS011;26586;50.708;22.412;2022-10-26T10:32:14;11.85;;;6.70;;
40867;SDS011;26586;50.708;22.412;2022-10-26T10:34:40;9.02;;;5.45;;
40867;SDS011;26586;50.708;22.412;2022-10-26T10:37:18;10.85;;;5.85;;
40867;SDS011;26586;50.708;22.412;2022-10-26T10:39:58;8.20;;;5.57;;
40867;SDS011;26586;50.708;22.412;2022-10-26T10:42:33;12.93;;;5.82;;
40867;SDS011;26586;50.708;22.412;2022-10-26T10:45:02;30.88;;;8.10;;
40867;SDS011;26586;50.708;22.412;2022-10-26T10:47:31;10.50;;;5.65;;
40867;SDS011;26586;50.708;22.412;2022-10-26T10:49:59;9.15;;;5.38;;
40867;SDS011;26586;50.708;22.412;2022-10-26T10:52:39;10.13;;;6.78;;
40867;SDS011;26586;50.708;22.412;2022-10-26T10:55:14;9.77;;;6.45;;
40867;SDS011;26586;50.708;22.412;2022-10-26T11:00:17;10.65;;;5.82;;
40867;SDS011;26586;50.708;22.412;2022-10-26T11:03:20;13.13;;;5.65;;
40867;SDS011;26586;50.708;22.412;2022-10-26T11:08:48;13.10;;;5.50;;
40867;SDS011;26586;50.708;22.412;2022-10-26T11:11:26;9.25;;;5.45;;
40867;SDS011;26586;50.708;22.412;2022-10-26T11:16:30;7.78;;;4.80;;
40867;SDS011;26586;50.708;22.412;2022-10-26T11:19:18;7.97;;;4.68;;
40867;SDS011;26586;50.708;22.412;2022-10-26T11:22:03;6.95;;;5.05;;
40867;SDS011;26586;50.708;22.412;2022-10-26T11:24:41;6.82;;;4.97;;
40867;SDS011;26586;50.708;22.412;2022-10-26T11:27:21;9.23;;;5.30;;
40867;SDS011;26586;50.708;22.412;2022-10-26T11:29:50;13.75;;;5.35;;
40867;SDS011;26586;50.708;22.412;2022-10-26T11:32:34;9.20;;;6.18;;
40867;SDS011;26586;50.708;22.412;2022-10-26T11:35:23;6.80;;;4.93;;
40867;SDS011;26586;50.708;22.412;2022-10-26T11:41:16;7.63;;;4.85;;
40867;SDS011;26586;50.708;22.412;2022-10-26T11:43:45;7.28;;;4.35;;
40867;SDS011;26586;50.708;22.412;2022-10-26T11:46:33;7.60;;;3.97;;
40867;SDS011;26586;50.708;22.412;2022-10-26T11:54:29;6.28;;;3.78;;
40867;SDS011;26586;50.708;22.412;2022-10-26T11:56:58;10.82;;;5.07;;
40867;SDS011;26586;50.708;22.412;2022-10-26T11:59:27;11.55;;;8.85;;
40867;SDS011;26586;50.708;22.412;2022-10-26T12:02:00;11.60;;;4.57;;
40867;SDS011;26586;50.708;22.412;2022-10-26T12:04:43;5.65;;;3.67;;
40867;SDS011;26586;50.708;22.412;2022-10-26T12:07:23;8.50;;;4.72;;
40867;SDS011;26586;50.708;22.412;2022-10-26T12:09:52;16.73;;;7.60;;
40867;SDS011;26586;50.708;22.412;2022-10-26T12:12:40;10.15;;;4.15;;
40867;SDS011;26586;50.708;22.412;2022-10-26T12:20:51;8.90;;;3.47;;
40867;SDS011;26586;50.708;22.412;2022-10-26T12:23:21;11.95;;;4.05;;
40867;SDS011;26586;50.708;22.412;2022-10-26T12:25:48;8.70;;;3.63;;
40867;SDS011;26586;50.708;22.412;2022-10-26T12:31:47;8.02;;;3.45;;
40867;SDS011;26586;50.708;22.412;2022-10-26T12:34:11;9.25;;;4.15;;
40867;SDS011;26586;50.708;22.412;2022-10-26T12:39:34;6.20;;;3.28;;
40867;SDS011;26586;50.708;22.412;2022-10-26T12:44:36;6.22;;;3.38;;
40867;SDS011;26586;50.708;22.412;2022-10-26T12:47:10;5.22;;;3.45;;
40867;SDS011;26586;50.708;22.412;2022-10-26T12:49:58;6.15;;;2.70;;
40867;SDS011;26586;50.708;22.412;2022-10-26T12:52:41;5.30;;;3.35;;
40867;SDS011;26586;50.708;22.412;2022-10-26T12:55:14;8.70;;;3.67;;
40867;SDS011;26586;50.708;22.412;2022-10-26T13:00:24;18.52;;;4.75;;
40867;SDS011;26586;50.708;22.412;2022-10-26T13:07:59;7.75;;;3.40;;
40867;SDS011;26586;50.708;22.412;2022-10-26T13:10:28;5.28;;;3.20;;
40867;SDS011;26586;50.708;22.412;2022-10-26T13:12:55;4.68;;;2.90;;
40867;SDS011;26586;50.708;22.412;2022-10-26T13:15:33;3.97;;;2.95;;
40867;SDS011;26586;50.708;22.412;2022-10-26T13:20:33;6.15;;;3.65;;
40867;SDS011;26586;50.708;22.412;2022-10-26T13:23:02;5.07;;;2.97;;
40867;SDS011;26586;50.708;22.412;2022-10-26T13:25:40;7.85;;;2.75;;
40867;SDS011;26586;50.708;22.412;2022-10-26T13:30:56;5.95;;;2.40;;
40867;SDS011;26586;50.708;22.412;2022-10-26T13:33:27;4.95;;;2.42;;
40867;SDS011;26586;50.708;22.412;2022-10-26T13:36:05;7.80;;;3.13;;
40867;SDS011;26586;50.708;22.412;2022-10-26T13:38:53;8.63;;;3.65;;
40867;SDS011;26586;50.708;22.412;2022-10-26T13:41:25;5.53;;;3.08;;
40867;SDS011;26586;50.708;22.412;2022-10-26T13:43:58;6.35;;;3.15;;
40867;SDS011;26586;50.708;22.412;2022-10-26T13:46:28;11.70;;;3.55;;
40867;SDS011;26586;50.708;22.412;2022-10-26T13:49:00;6.55;;;3.38;;
40867;SDS011;26586;50.708;22.412;2022-10-26T13:51:44;10.07;;;3.50;;
40867;SDS011;26586;50.708;22.412;2022-10-26T13:54:23;7.90;;;4.50;;
40867;SDS011;26586;50.708;22.412;2022-10-26T13:59:46;13.05;;;4.40;;
40867;SDS011;26586;50.708;22.412;2022-10-26T14:02:22;8.50;;;4.18;;
40867;SDS011;26586;50.708;22.412;2022-10-26T14:04:59;10.02;;;4.15;;
40867;SDS011;26586;50.708;22.412;2022-10-26T14:12:57;7.00;;;3.38;;
40867;SDS011;26586;50.708;22.412;2022-10-26T14:15:31;12.82;;;6.05;;
40867;SDS011;26586;50.708;22.412;2022-10-26T14:17:59;10.73;;;5.13;;
40867;SDS011;26586;50.708;22.412;2022-10-26T14:20:29;5.45;;;3.42;;
40867;SDS011;26586;50.708;22.412;2022-10-26T14:22:56;5.10;;;3.10;;
40867;SDS011;26586;50.708;22.412;2022-10-26T14:25:25;4.60;;;3.58;;
40867;SDS011;26586;50.708;22.412;2022-10-26T14:27:54;7.55;;;3.30;;
40867;SDS011;26586;50.708;22.412;2022-10-26T14:32:50;12.52;;;5.32;;
40867;SDS011;26586;50.708;22.412;2022-10-26T14:35:21;20.40;;;7.65;;
40867;SDS011;26586;50.708;22.412;2022-10-26T14:37:58;9.32;;;4.10;;
40867;SDS011;26586;50.708;22.412;2022-10-26T14:40:29;8.35;;;5.00;;
40867;SDS011;26586;50.708;22.412;2022-10-26T14:42:59;6.97;;;4.05;;
40867;SDS011;26586;50.708;22.412;2022-10-26T14:45:31;9.30;;;6.35;;
40867;SDS011;26586;50.708;22.412;2022-10-26T14:48:01;10.48;;;5.88;;
40867;SDS011;26586;50.708;22.412;2022-10-26T14:50:28;20.70;;;10.55;;
40867;SDS011;26586;50.708;22.412;2022-10-26T14:53:28;28.33;;;14.18;;
40867;SDS011;26586;50.708;22.412;2022-10-26T14:55:48;22.20;;;18.75;;
40867;SDS011;26586;50.708;22.412;2022-10-26T14:58:36;22.13;;;19.40;;
40867;SDS011;26586;50.708;22.412;2022-10-26T15:03:47;24.20;;;16.40;;
40867;SDS011;26586;50.708;22.412;2022-10-26T15:06:42;31.17;;;19.75;;
40867;SDS011;26586;50.708;22.412;2022-10-26T15:09:36;31.05;;;19.42;;
40867;SDS011;26586;50.708;22.412;2022-10-26T15:12:33;30.10;;;21.55;;
40867;SDS011;26586;50.708;22.412;2022-10-26T15:17:53;21.27;;;13.93;;
40867;SDS011;26586;50.708;22.412;2022-10-26T15:20:22;31.45;;;17.10;;
40867;SDS011;26586;50.708;22.412;2022-10-26T15:22:53;29.58;;;16.38;;
40867;SDS011;26586;50.708;22.412;2022-10-26T15:25:22;28.20;;;16.70;;
40867;SDS011;26586;50.708;22.412;2022-10-26T15:27:51;30.10;;;18.88;;
40867;SDS011;26586;50.708;22.412;2022-10-26T15:30:21;27.17;;;17.25;;
40867;SDS011;26586;50.708;22.412;2022-10-26T15:32:53;23.77;;;13.57;;
40867;SDS011;26586;50.708;22.412;2022-10-26T15:35:24;24.35;;;14.70;;
40867;SDS011;26586;50.708;22.412;2022-10-26T15:37:52;32.75;;;20.70;;
40867;SDS011;26586;50.708;22.412;2022-10-26T15:40:20;32.55;;;20.63;;
40867;SDS011;26586;50.708;22.412;2022-10-26T15:42:51;38.05;;;22.45;;
40867;SDS011;26586;50.708;22.412;2022-10-26T15:45:31;52.47;;;33.70;;
40867;SDS011;26586;50.708;22.412;2022-10-26T15:48:14;43.13;;;27.65;;
40867;SDS011;26586;50.708;22.412;2022-10-26T15:50:43;49.55;;;31.08;;
40867;SDS011;26586;50.708;22.412;2022-10-26T15:53:12;50.97;;;29.20;;
40867;SDS011;26586;50.708;22.412;2022-10-26T15:55:43;43.15;;;27.13;;
40867;SDS011;26586;50.708;22.412;2022-10-26T15:58:10;59.33;;;36.80;;
40867;SDS011;26586;50.708;22.412;2022-10-26T16:00:36;84.00;;;49.77;;
40867;SDS011;26586;50.708;22.412;2022-10-26T16:03:02;64.78;;;39.95;;
40867;SDS011;26586;50.708;22.412;2022-10-26T16:05:28;55.00;;;31.23;;
40867;SDS011;26586;50.708;22.412;2022-10-26T16:07:55;53.42;;;33.70;;
40867;SDS011;26586;50.708;22.412;2022-10-26T16:10:23;79.35;;;44.25;;
40867;SDS011;26586;50.708;22.412;2022-10-26T16:12:50;141.35;;;75.80;;
40867;SDS011;26586;50.708;22.412;2022-10-26T16:15:26;155.07;;;82.15;;
40867;SDS011;26586;50.708;22.412;2022-10-26T16:17:52;108.93;;;61.95;;
40867;SDS011;26586;50.708;22.412;2022-10-26T16:20:19;101.80;;;61.45;;
40867;SDS011;26586;50.708;22.412;2022-10-26T16:22:47;140.07;;;90.88;;
40867;SDS011;26586;50.708;22.412;2022-10-26T16:25:15;77.10;;;50.00;;
40867;SDS011;26586;50.708;22.412;2022-10-26T16:27:44;50.72;;;32.75;;
40867;SDS011;26586;50.708;22.412;2022-10-26T16:30:11;78.43;;;50.53;;
40867;SDS011;26586;50.708;22.412;2022-10-26T16:32:38;90.28;;;60.33;;
40867;SDS011;26586;50.708;22.412;2022-10-26T16:35:05;98.63;;;59.85;;
40867;SDS011;26586;50.708;22.412;2022-10-26T16:37:32;115.68;;;69.75;;
40867;SDS011;26586;50.708;22.412;2022-10-26T16:39:58;125.78;;;72.50;;
40867;SDS011;26586;50.708;22.412;2022-10-26T16:42:25;134.55;;;77.38;;
40867;SDS011;26586;50.708;22.412;2022-10-26T16:44:55;164.68;;;85.53;;
40867;SDS011;26586;50.708;22.412;2022-10-26T16:47:35;161.77;;;89.63;;
40867;SDS011;26586;50.708;22.412;2022-10-26T16:50:07;167.85;;;91.72;;
40867;SDS011;26586;50.708;22.412;2022-10-26T16:52:35;224.35;;;113.40;;
40867;SDS011;26586;50.708;22.412;2022-10-26T16:55:02;239.40;;;121.20;;
40867;SDS011;26586;50.708;22.412;2022-10-26T16:57:29;233.57;;;129.30;;
40867;SDS011;26586;50.708;22.412;2022-10-26T16:59:56;240.45;;;124.10;;
40867;SDS011;26586;50.708;22.412;2022-10-26T17:02:23;215.70;;;115.93;;